createdAt,value
2023-03-02T00:08:56.833Z,100392.34
2023-03-02T00:19:02.535Z,100390.52
2023-03-02T00:29:08.444Z,100389.37
2023-03-02T00:39:14.084Z,100376.41
2023-03-02T00:49:19.707Z,100379.00
2023-03-02T00:59:28.022Z,100372.73
2023-03-02T01:09:34.489Z,100368.02
2023-03-02T01:19:40.579Z,100351.76
2023-03-02T01:29:46.463Z,100344.66
2023-03-02T01:39:52.239Z,100335.67
2023-03-02T01:50:01.125Z,100324.70
2023-03-02T02:00:12.945Z,100309.47
2023-03-02T02:10:19.265Z,100296.77
2023-03-02T02:20:29.791Z,100293.84
2023-03-02T02:30:36.352Z,100282.13
2023-03-02T02:40:51.316Z,100276.27
2023-03-02T02:51:00.585Z,100268.41
2023-03-02T03:01:07.653Z,100266.49
2023-03-02T03:11:15.345Z,100264.74
2023-03-02T03:21:20.965Z,100265.41
2023-03-02T03:31:28.130Z,100271.52
2023-03-02T03:41:33.796Z,100261.34
2023-03-02T03:51:39.448Z,100262.55
2023-03-02T04:01:48.623Z,100259.77
2023-03-02T04:11:56.536Z,100262.16
2023-03-02T04:22:04.081Z,100254.27
2023-03-02T04:32:10.504Z,100246.60
2023-03-02T04:42:16.204Z,100249.59
2023-03-02T04:52:22.142Z,100252.55
2023-03-02T05:02:27.923Z,100253.70
2023-03-02T05:12:53.775Z,100256.15
2023-03-02T05:23:01.705Z,100267.83
2023-03-02T05:33:07.398Z,100269.58
2023-03-02T05:43:16.067Z,100279.34
2023-03-02T05:53:21.889Z,100287.31
2023-03-02T06:03:27.687Z,100281.94
2023-03-02T06:13:33.455Z,100291.27
2023-03-02T06:23:39.126Z,100295.98
2023-03-02T06:33:45.137Z,100307.88
2023-03-02T06:43:50.807Z,100312.83
2023-03-02T06:53:56.363Z,100309.89
2023-03-02T07:04:02.026Z,100313.07
2023-03-02T07:14:07.726Z,100314.60
2023-03-02T07:24:13.328Z,100315.20
2023-03-02T07:34:19.074Z,100313.35
2023-03-02T07:44:24.712Z,100305.75
2023-03-02T07:54:30.773Z,100300.20
2023-03-02T08:04:38.402Z,100293.85
2023-03-02T08:14:46.208Z,100292.23
2023-03-02T08:24:52.031Z,100285.80
2023-03-02T08:34:57.702Z,100281.44
2023-03-02T08:45:03.450Z,100274.08
2023-03-02T08:55:12.546Z,100266.19
2023-03-02T09:05:18.433Z,100249.18
2023-03-02T09:15:24.083Z,100240.23
2023-03-02T09:25:30.264Z,100234.16
2023-03-02T09:35:36.066Z,100237.16
2023-03-02T09:45:58.193Z,100229.64
2023-03-02T09:56:04.846Z,100234.13
2023-03-02T10:06:11.229Z,100236.59
2023-03-02T10:16:26.101Z,100236.07
2023-03-02T10:26:41.208Z,100234.89
2023-03-02T10:36:47.802Z,100226.74
2023-03-02T10:46:54.007Z,100217.13
2023-03-02T10:57:01.576Z,100204.09
2023-03-02T11:07:13.127Z,100195.84
2023-03-02T11:17:33.745Z,100195.73
2023-03-02T11:27:44.298Z,100189.73
2023-03-02T11:37:54.869Z,100175.50
2023-03-02T11:48:05.702Z,100160.86
2023-03-02T11:58:18.538Z,100154.52
2023-03-02T12:08:37.657Z,100147.80
2023-03-02T12:18:49.291Z,100143.42
2023-03-02T12:29:03.742Z,100137.64
2023-03-02T12:39:25.333Z,100126.94
2023-03-02T12:49:46.176Z,100119.46
2023-03-02T12:59:56.921Z,100106.05
2023-03-02T13:10:04.884Z,100097.30
2023-03-02T13:20:15.260Z,100094.07
2023-03-02T13:30:26.995Z,100082.89
2023-03-02T13:40:44.857Z,100075.38
2023-03-02T13:51:00.045Z,100063.17
2023-03-02T14:01:07.166Z,100050.45
2023-03-02T14:11:15.110Z,100038.80
2023-03-02T14:21:22.605Z,100029.84
2023-03-02T14:31:28.624Z,100019.13
2023-03-02T14:41:43.937Z,100006.96
2023-03-02T14:52:06.072Z,100004.22
2023-03-02T15:02:24.358Z,99996.85
2023-03-02T15:12:30.917Z,99988.90
2023-03-02T15:22:36.899Z,99981.30
2023-03-02T15:32:42.541Z,99986.95
2023-03-02T15:42:48.491Z,99991.21
2023-03-02T15:52:54.268Z,99990.63
2023-03-02T16:02:59.955Z,99985.73
2023-03-02T16:13:07.199Z,99990.52
2023-03-02T16:23:13.528Z,99993.25
2023-03-02T16:33:20.817Z,99995.79
2023-03-02T16:43:26.622Z,99993.38
2023-03-02T16:53:32.433Z,99999.77
2023-03-02T17:03:38.597Z,100003.45
2023-03-02T17:13:44.233Z,100007.11
2023-03-02T17:23:50.120Z,100008.73
2023-03-02T17:33:56.289Z,100010.20
2023-03-02T17:44:03.131Z,100004.93
2023-03-02T17:54:07.446Z,100002.79
2023-03-02T18:04:13.273Z,100004.93
2023-03-02T18:14:21.470Z,99997.29
2023-03-02T18:24:27.468Z,99991.52
2023-03-02T18:34:33.198Z,99992.77
2023-03-02T18:44:39.229Z,99991.16
2023-03-02T18:54:46.514Z,99988.34
2023-03-02T19:04:52.367Z,99989.55
2023-03-02T19:14:59.252Z,99997.69
2023-03-02T19:25:05.334Z,99994.58
2023-03-02T19:35:14.814Z,99986.64
2023-03-02T19:45:22.892Z,99981.16
2023-03-02T19:55:29.344Z,99969.56
2023-03-02T20:05:35.026Z,99964.59
2023-03-02T20:15:44.451Z,99966.83
2023-03-02T20:25:50.384Z,99963.80
2023-03-02T20:35:56.818Z,99959.20
2023-03-02T20:46:03.283Z,99960.45
2023-03-02T20:56:11.354Z,99959.78
2023-03-02T21:06:17.077Z,99954.70
2023-03-02T21:16:26.393Z,99951.94
2023-03-02T21:26:32.112Z,99941.75
2023-03-02T21:36:37.976Z,99937.23
2023-03-02T21:46:43.848Z,99931.77
2023-03-02T21:56:49.589Z,99930.02
2023-03-02T22:06:55.275Z,99929.58
2023-03-02T22:17:01.141Z,99925.09
2023-03-02T22:27:22.486Z,99928.15
2023-03-02T22:37:30.113Z,99928.60
2023-03-02T22:47:35.799Z,99919.34
2023-03-02T22:57:44.045Z,99900.44
2023-03-02T23:07:49.851Z,99896.45
2023-03-02T23:17:58.350Z,99896.11
2023-03-02T23:28:04.214Z,99886.60
2023-03-02T23:38:09.886Z,99886.08
2023-03-02T23:48:16.599Z,99889.02
2023-03-02T23:58:22.554Z,99874.80
